sensor_id;sensor_type;location;lat;lon;timestamp;P1;durP1;ratioP1;P2;durP2;ratioP2
52244;SDS011;55759;51.586;-1.758;2023-04-03T00:01:00;7.72;;;4.10;;
52244;SDS011;55759;51.586;-1.758;2023-04-03T00:03:26;8.13;;;3.53;;
52244;SDS011;55759;51.586;-1.758;2023-04-03T00:05:51;6.78;;;3.92;;
52244;SDS011;55759;51.586;-1.758;2023-04-03T00:08:17;8.75;;;3.83;;
52244;SDS011;55759;51.586;-1.758;2023-04-03T00:10:43;8.60;;;4.20;;
52244;SDS011;55759;51.586;-1.758;2023-04-03T00:13:09;13.52;;;4.38;;
52244;SDS011;55759;51.586;-1.758;2023-04-03T00:15:36;8.35;;;4.68;;
52244;SDS011;55759;51.586;-1.758;2023-04-03T00:18:03;8.80;;;3.90;;
52244;SDS011;55759;51.586;-1.758;2023-04-03T00:20:29;9.05;;;4.85;;
52244;SDS011;55759;51.586;-1.758;2023-04-03T00:22:55;15.65;;;4.45;;
52244;SDS011;55759;51.586;-1.758;2023-04-03T00:25:21;15.30;;;4.68;;
52244;SDS011;55759;51.586;-1.758;2023-04-03T00:27:47;10.02;;;4.60;;
52244;SDS011;55759;51.586;-1.758;2023-04-03T00:30:13;11.30;;;4.57;;
52244;SDS011;55759;51.586;-1.758;2023-04-03T00:32:40;8.38;;;4.25;;
52244;SDS011;55759;51.586;-1.758;2023-04-03T00:35:06;15.55;;;4.68;;
52244;SDS011;55759;51.586;-1.758;2023-04-03T00:37:32;12.50;;;4.60;;
52244;SDS011;55759;51.586;-1.758;2023-04-03T00:39:58;7.65;;;4.10;;
52244;SDS011;55759;51.586;-1.758;2023-04-03T00:42:24;9.05;;;4.68;;
52244;SDS011;55759;51.586;-1.758;2023-04-03T00:47:42;9.18;;;4.53;;
52244;SDS011;55759;51.586;-1.758;2023-04-03T00:50:08;9.88;;;4.75;;
52244;SDS011;55759;51.586;-1.758;2023-04-03T00:52:34;9.63;;;4.45;;
52244;SDS011;55759;51.586;-1.758;2023-04-03T00:55:02;10.77;;;4.15;;
52244;SDS011;55759;51.586;-1.758;2023-04-03T00:57:33;13.60;;;5.28;;
52244;SDS011;55759;51.586;-1.758;2023-04-03T01:00:04;10.02;;;5.22;;
52244;SDS011;55759;51.586;-1.758;2023-04-03T01:02:34;12.10;;;4.57;;
52244;SDS011;55759;51.586;-1.758;2023-04-03T01:04:59;18.40;;;5.50;;
52244;SDS011;55759;51.586;-1.758;2023-04-03T01:07:34;9.05;;;4.53;;
52244;SDS011;55759;51.586;-1.758;2023-04-03T01:10:03;14.27;;;5.63;;
52244;SDS011;55759;51.586;-1.758;2023-04-03T01:12:33;13.65;;;5.50;;
52244;SDS011;55759;51.586;-1.758;2023-04-03T01:15:03;10.07;;;4.95;;
52244;SDS011;55759;51.586;-1.758;2023-04-03T01:25:34;13.45;;;4.97;;
52244;SDS011;55759;51.586;-1.758;2023-04-03T01:28:03;10.43;;;4.70;;
52244;SDS011;55759;51.586;-1.758;2023-04-03T01:30:34;21.40;;;5.80;;
52244;SDS011;55759;51.586;-1.758;2023-04-03T01:33:05;10.73;;;4.50;;
52244;SDS011;55759;51.586;-1.758;2023-04-03T01:35:30;12.77;;;5.43;;
52244;SDS011;55759;51.586;-1.758;2023-04-03T01:37:56;14.00;;;5.50;;
52244;SDS011;55759;51.586;-1.758;2023-04-03T01:40:22;17.70;;;5.95;;
52244;SDS011;55759;51.586;-1.758;2023-04-03T01:42:47;11.13;;;5.05;;
52244;SDS011;55759;51.586;-1.758;2023-04-03T01:45:13;14.85;;;5.05;;
52244;SDS011;55759;51.586;-1.758;2023-04-03T01:47:39;8.48;;;5.00;;
52244;SDS011;55759;51.586;-1.758;2023-04-03T01:50:05;12.43;;;5.35;;
52244;SDS011;55759;51.586;-1.758;2023-04-03T01:52:31;12.85;;;5.30;;
52244;SDS011;55759;51.586;-1.758;2023-04-03T01:54:56;14.45;;;5.93;;
52244;SDS011;55759;51.586;-1.758;2023-04-03T01:57:22;13.82;;;5.38;;
52244;SDS011;55759;51.586;-1.758;2023-04-03T01:59:48;11.18;;;5.78;;
52244;SDS011;55759;51.586;-1.758;2023-04-03T02:02:13;14.02;;;5.55;;
52244;SDS011;55759;51.586;-1.758;2023-04-03T02:04:40;14.07;;;5.53;;
52244;SDS011;55759;51.586;-1.758;2023-04-03T02:07:06;13.13;;;5.60;;
52244;SDS011;55759;51.586;-1.758;2023-04-03T02:09:31;15.68;;;5.50;;
52244;SDS011;55759;51.586;-1.758;2023-04-03T02:11:57;13.65;;;5.65;;
52244;SDS011;55759;51.586;-1.758;2023-04-03T02:14:23;16.55;;;6.57;;
52244;SDS011;55759;51.586;-1.758;2023-04-03T02:16:49;11.18;;;6.28;;
52244;SDS011;55759;51.586;-1.758;2023-04-03T02:19:15;15.18;;;5.53;;
52244;SDS011;55759;51.586;-1.758;2023-04-03T02:21:41;12.10;;;5.38;;
52244;SDS011;55759;51.586;-1.758;2023-04-03T02:24:06;12.20;;;5.88;;
52244;SDS011;55759;51.586;-1.758;2023-04-03T02:26:32;15.10;;;7.00;;
52244;SDS011;55759;51.586;-1.758;2023-04-03T02:28:58;13.43;;;5.95;;
52244;SDS011;55759;51.586;-1.758;2023-04-03T02:31:24;13.23;;;6.22;;
52244;SDS011;55759;51.586;-1.758;2023-04-03T02:33:50;12.77;;;6.28;;
52244;SDS011;55759;51.586;-1.758;2023-04-03T02:36:16;13.75;;;6.43;;
52244;SDS011;55759;51.586;-1.758;2023-04-03T02:38:42;14.38;;;5.97;;
52244;SDS011;55759;51.586;-1.758;2023-04-03T02:41:09;18.15;;;6.93;;
52244;SDS011;55759;51.586;-1.758;2023-04-03T02:43:36;13.07;;;6.00;;
52244;SDS011;55759;51.586;-1.758;2023-04-03T02:46:02;14.55;;;6.45;;
52244;SDS011;55759;51.586;-1.758;2023-04-03T02:48:28;13.38;;;6.50;;
52244;SDS011;55759;51.586;-1.758;2023-04-03T02:50:54;15.43;;;5.97;;
52244;SDS011;55759;51.586;-1.758;2023-04-03T02:53:19;23.73;;;7.28;;
52244;SDS011;55759;51.586;-1.758;2023-04-03T02:55:45;15.10;;;5.95;;
52244;SDS011;55759;51.586;-1.758;2023-04-03T02:58:11;17.67;;;6.25;;
52244;SDS011;55759;51.586;-1.758;2023-04-03T03:00:37;12.27;;;6.13;;
52244;SDS011;55759;51.586;-1.758;2023-04-03T03:03:03;19.73;;;6.72;;
52244;SDS011;55759;51.586;-1.758;2023-04-03T03:05:29;12.13;;;6.22;;
52244;SDS011;55759;51.586;-1.758;2023-04-03T03:07:55;13.88;;;6.53;;
52244;SDS011;55759;51.586;-1.758;2023-04-03T03:10:21;11.95;;;6.60;;
52244;SDS011;55759;51.586;-1.758;2023-04-03T03:12:47;20.80;;;8.27;;
52244;SDS011;55759;51.586;-1.758;2023-04-03T03:15:13;16.88;;;7.10;;
52244;SDS011;55759;51.586;-1.758;2023-04-03T03:17:40;14.85;;;7.13;;
52244;SDS011;55759;51.586;-1.758;2023-04-03T03:20:06;17.80;;;6.63;;
52244;SDS011;55759;51.586;-1.758;2023-04-03T03:22:32;13.45;;;6.45;;
52244;SDS011;55759;51.586;-1.758;2023-04-03T03:24:59;14.77;;;6.93;;
52244;SDS011;55759;51.586;-1.758;2023-04-03T03:27:25;15.35;;;6.47;;
52244;SDS011;55759;51.586;-1.758;2023-04-03T03:29:51;13.93;;;6.35;;
52244;SDS011;55759;51.586;-1.758;2023-04-03T03:32:17;13.50;;;6.75;;
52244;SDS011;55759;51.586;-1.758;2023-04-03T03:34:43;20.02;;;6.82;;
52244;SDS011;55759;51.586;-1.758;2023-04-03T03:37:08;16.23;;;7.20;;
52244;SDS011;55759;51.586;-1.758;2023-04-03T03:39:34;17.10;;;6.57;;
52244;SDS011;55759;51.586;-1.758;2023-04-03T03:42:00;22.30;;;7.20;;
52244;SDS011;55759;51.586;-1.758;2023-04-03T03:44:26;18.50;;;7.38;;
52244;SDS011;55759;51.586;-1.758;2023-04-03T03:46:53;16.88;;;7.40;;
52244;SDS011;55759;51.586;-1.758;2023-04-03T03:49:20;15.35;;;7.07;;
52244;SDS011;55759;51.586;-1.758;2023-04-03T03:51:46;16.25;;;6.50;;
52244;SDS011;55759;51.586;-1.758;2023-04-03T03:54:12;18.23;;;7.22;;
52244;SDS011;55759;51.586;-1.758;2023-04-03T03:56:38;14.45;;;6.97;;
52244;SDS011;55759;51.586;-1.758;2023-04-03T03:59:04;19.17;;;7.78;;
52244;SDS011;55759;51.586;-1.758;2023-04-03T04:01:30;16.48;;;7.30;;
52244;SDS011;55759;51.586;-1.758;2023-04-03T04:03:57;16.42;;;8.60;;
52244;SDS011;55759;51.586;-1.758;2023-04-03T04:06:22;18.92;;;6.97;;
52244;SDS011;55759;51.586;-1.758;2023-04-03T04:08:48;14.43;;;7.10;;
52244;SDS011;55759;51.586;-1.758;2023-04-03T04:13:40;16.65;;;7.85;;
52244;SDS011;55759;51.586;-1.758;2023-04-03T04:16:06;15.95;;;6.85;;
52244;SDS011;55759;51.586;-1.758;2023-04-03T04:18:33;14.02;;;7.13;;
52244;SDS011;55759;51.586;-1.758;2023-04-03T04:20:58;18.08;;;7.28;;
52244;SDS011;55759;51.586;-1.758;2023-04-03T04:23:25;14.60;;;7.00;;
52244;SDS011;55759;51.586;-1.758;2023-04-03T04:25:50;17.83;;;7.18;;
52244;SDS011;55759;51.586;-1.758;2023-04-03T04:28:16;14.50;;;6.78;;
52244;SDS011;55759;51.586;-1.758;2023-04-03T04:30:42;15.98;;;6.70;;
52244;SDS011;55759;51.586;-1.758;2023-04-03T04:33:08;18.50;;;7.85;;
52244;SDS011;55759;51.586;-1.758;2023-04-03T04:35:35;20.90;;;7.72;;
52244;SDS011;55759;51.586;-1.758;2023-04-03T04:40:27;19.00;;;7.30;;
52244;SDS011;55759;51.586;-1.758;2023-04-03T04:42:53;15.75;;;7.63;;
52244;SDS011;55759;51.586;-1.758;2023-04-03T04:45:19;17.17;;;7.97;;
52244;SDS011;55759;51.586;-1.758;2023-04-03T04:47:45;14.38;;;7.05;;
52244;SDS011;55759;51.586;-1.758;2023-04-03T04:50:11;14.18;;;7.63;;
52244;SDS011;55759;51.586;-1.758;2023-04-03T04:52:37;18.25;;;7.18;;
52244;SDS011;55759;51.586;-1.758;2023-04-03T04:55:03;17.88;;;8.13;;
52244;SDS011;55759;51.586;-1.758;2023-04-03T04:57:30;16.58;;;7.55;;
52244;SDS011;55759;51.586;-1.758;2023-04-03T05:03:05;24.13;;;7.28;;
52244;SDS011;55759;51.586;-1.758;2023-04-03T05:05:31;15.77;;;6.95;;
52244;SDS011;55759;51.586;-1.758;2023-04-03T05:07:56;14.02;;;6.80;;
52244;SDS011;55759;51.586;-1.758;2023-04-03T05:10:22;24.60;;;7.45;;
52244;SDS011;55759;51.586;-1.758;2023-04-03T05:12:48;18.17;;;7.20;;
52244;SDS011;55759;51.586;-1.758;2023-04-03T05:15:14;21.08;;;7.72;;
52244;SDS011;55759;51.586;-1.758;2023-04-03T05:17:40;22.63;;;7.40;;
52244;SDS011;55759;51.586;-1.758;2023-04-03T05:20:05;15.43;;;6.60;;
52244;SDS011;55759;51.586;-1.758;2023-04-03T05:24:57;12.60;;;6.70;;
52244;SDS011;55759;51.586;-1.758;2023-04-03T05:27:23;16.73;;;6.53;;
52244;SDS011;55759;51.586;-1.758;2023-04-03T05:29:49;17.85;;;6.53;;
52244;SDS011;55759;51.586;-1.758;2023-04-03T05:32:15;15.30;;;6.28;;
52244;SDS011;55759;51.586;-1.758;2023-04-03T05:34:41;16.13;;;6.45;;
52244;SDS011;55759;51.586;-1.758;2023-04-03T05:37:07;13.70;;;6.72;;
52244;SDS011;55759;51.586;-1.758;2023-04-03T05:39:33;16.88;;;6.93;;
52244;SDS011;55759;51.586;-1.758;2023-04-03T05:41:59;13.07;;;6.43;;
52244;SDS011;55759;51.586;-1.758;2023-04-03T05:46:50;21.88;;;6.55;;
52244;SDS011;55759;51.586;-1.758;2023-04-03T05:49:16;16.67;;;6.78;;
52244;SDS011;55759;51.586;-1.758;2023-04-03T05:51:42;12.10;;;6.13;;
52244;SDS011;55759;51.586;-1.758;2023-04-03T05:56:43;22.75;;;6.68;;
52244;SDS011;55759;51.586;-1.758;2023-04-03T05:59:09;13.73;;;6.55;;
52244;SDS011;55759;51.586;-1.758;2023-04-03T06:01:35;20.65;;;6.90;;
52244;SDS011;55759;51.586;-1.758;2023-04-03T06:04:01;13.20;;;6.00;;
52244;SDS011;55759;51.586;-1.758;2023-04-03T06:06:42;19.20;;;6.28;;
52244;SDS011;55759;51.586;-1.758;2023-04-03T06:09:13;15.68;;;6.10;;
52244;SDS011;55759;51.586;-1.758;2023-04-03T06:11:40;15.13;;;6.47;;
52244;SDS011;55759;51.586;-1.758;2023-04-03T06:16:33;30.10;;;7.55;;
52244;SDS011;55759;51.586;-1.758;2023-04-03T06:18:58;15.13;;;6.85;;
52244;SDS011;55759;51.586;-1.758;2023-04-03T06:21:24;12.55;;;6.45;;
52244;SDS011;55759;51.586;-1.758;2023-04-03T06:23:50;13.10;;;6.47;;
52244;SDS011;55759;51.586;-1.758;2023-04-03T06:28:42;15.25;;;6.53;;
52244;SDS011;55759;51.586;-1.758;2023-04-03T06:31:07;19.55;;;7.45;;
52244;SDS011;55759;51.586;-1.758;2023-04-03T06:33:34;20.02;;;8.63;;
52244;SDS011;55759;51.586;-1.758;2023-04-03T06:35:59;22.98;;;8.55;;
52244;SDS011;55759;51.586;-1.758;2023-04-03T06:38:29;22.13;;;7.82;;
52244;SDS011;55759;51.586;-1.758;2023-04-03T06:40:55;16.15;;;7.18;;
52244;SDS011;55759;51.586;-1.758;2023-04-03T06:43:21;21.77;;;8.05;;
52244;SDS011;55759;51.586;-1.758;2023-04-03T06:45:47;20.35;;;8.50;;
52244;SDS011;55759;51.586;-1.758;2023-04-03T06:48:13;20.55;;;8.52;;
52244;SDS011;55759;51.586;-1.758;2023-04-03T06:50:39;12.75;;;6.22;;
52244;SDS011;55759;51.586;-1.758;2023-04-03T06:53:05;25.73;;;9.15;;
52244;SDS011;55759;51.586;-1.758;2023-04-03T06:55:31;19.13;;;8.20;;
52244;SDS011;55759;51.586;-1.758;2023-04-03T06:57:57;18.15;;;7.20;;
52244;SDS011;55759;51.586;-1.758;2023-04-03T07:00:23;17.50;;;7.00;;
52244;SDS011;55759;51.586;-1.758;2023-04-03T07:02:49;24.98;;;7.50;;
52244;SDS011;55759;51.586;-1.758;2023-04-03T07:05:15;15.02;;;6.95;;
52244;SDS011;55759;51.586;-1.758;2023-04-03T07:07:41;35.22;;;7.68;;
52244;SDS011;55759;51.586;-1.758;2023-04-03T07:10:07;12.73;;;6.28;;
52244;SDS011;55759;51.586;-1.758;2023-04-03T07:12:33;15.18;;;6.78;;
52244;SDS011;55759;51.586;-1.758;2023-04-03T07:14:59;13.27;;;6.00;;
52244;SDS011;55759;51.586;-1.758;2023-04-03T07:17:25;11.93;;;5.82;;
52244;SDS011;55759;51.586;-1.758;2023-04-03T07:19:51;16.38;;;5.80;;
52244;SDS011;55759;51.586;-1.758;2023-04-03T07:22:17;12.70;;;5.90;;
52244;SDS011;55759;51.586;-1.758;2023-04-03T07:24:43;13.35;;;5.40;;
52244;SDS011;55759;51.586;-1.758;2023-04-03T07:27:09;10.68;;;5.10;;
52244;SDS011;55759;51.586;-1.758;2023-04-03T07:29:37;14.50;;;5.40;;
52244;SDS011;55759;51.586;-1.758;2023-04-03T07:32:04;12.18;;;5.40;;
52244;SDS011;55759;51.586;-1.758;2023-04-03T07:34:31;15.15;;;6.07;;
52244;SDS011;55759;51.586;-1.758;2023-04-03T07:36:57;15.38;;;6.03;;
52244;SDS011;55759;51.586;-1.758;2023-04-03T07:41:49;16.80;;;6.07;;
52244;SDS011;55759;51.586;-1.758;2023-04-03T07:44:16;11.52;;;5.47;;
52244;SDS011;55759;51.586;-1.758;2023-04-03T07:46:42;11.88;;;4.95;;
52244;SDS011;55759;51.586;-1.758;2023-04-03T07:49:08;14.90;;;5.78;;
52244;SDS011;55759;51.586;-1.758;2023-04-03T07:51:34;12.50;;;5.13;;
52244;SDS011;55759;51.586;-1.758;2023-04-03T08:00:06;13.07;;;4.30;;
52244;SDS011;55759;51.586;-1.758;2023-04-03T08:02:39;11.57;;;4.63;;
52244;SDS011;55759;51.586;-1.758;2023-04-03T08:05:05;15.50;;;4.78;;
52244;SDS011;55759;51.586;-1.758;2023-04-03T08:07:31;15.07;;;4.70;;
52244;SDS011;55759;51.586;-1.758;2023-04-03T08:09:57;9.57;;;3.80;;
52244;SDS011;55759;51.586;-1.758;2023-04-03T08:12:22;9.50;;;4.07;;
52244;SDS011;55759;51.586;-1.758;2023-04-03T08:14:48;9.90;;;4.25;;
52244;SDS011;55759;51.586;-1.758;2023-04-03T08:17:14;15.25;;;6.05;;
52244;SDS011;55759;51.586;-1.758;2023-04-03T08:19:40;9.13;;;3.83;;
52244;SDS011;55759;51.586;-1.758;2023-04-03T08:22:08;8.02;;;4.10;;
52244;SDS011;55759;51.586;-1.758;2023-04-03T08:24:34;9.68;;;3.85;;
52244;SDS011;55759;51.586;-1.758;2023-04-03T08:27:00;12.02;;;4.25;;
52244;SDS011;55759;51.586;-1.758;2023-04-03T08:29:26;13.23;;;5.10;;
52244;SDS011;55759;51.586;-1.758;2023-04-03T08:31:52;9.55;;;4.20;;
52244;SDS011;55759;51.586;-1.758;2023-04-03T08:34:19;13.00;;;4.65;;
52244;SDS011;55759;51.586;-1.758;2023-04-03T08:36:45;12.13;;;4.20;;
52244;SDS011;55759;51.586;-1.758;2023-04-03T08:39:11;12.77;;;3.38;;
52244;SDS011;55759;51.586;-1.758;2023-04-03T08:41:38;11.57;;;3.92;;
52244;SDS011;55759;51.586;-1.758;2023-04-03T08:44:25;8.75;;;3.80;;
52244;SDS011;55759;51.586;-1.758;2023-04-03T08:47:11;10.77;;;3.70;;
52244;SDS011;55759;51.586;-1.758;2023-04-03T08:52:32;7.90;;;3.25;;
52244;SDS011;55759;51.586;-1.758;2023-04-03T08:57:47;14.57;;;3.78;;
52244;SDS011;55759;51.586;-1.758;2023-04-03T09:00:17;9.93;;;3.30;;
52244;SDS011;55759;51.586;-1.758;2023-04-03T09:02:49;8.35;;;3.60;;
52244;SDS011;55759;51.586;-1.758;2023-04-03T09:11:09;7.25;;;3.75;;
52244;SDS011;55759;51.586;-1.758;2023-04-03T09:16:42;10.18;;;3.60;;
52244;SDS011;55759;51.586;-1.758;2023-04-03T09:19:33;9.23;;;3.40;;
52244;SDS011;55759;51.586;-1.758;2023-04-03T09:22:25;6.85;;;3.13;;
52244;SDS011;55759;51.586;-1.758;2023-04-03T09:24:55;8.90;;;3.65;;
52244;SDS011;55759;51.586;-1.758;2023-04-03T09:27:22;9.43;;;3.38;;
52244;SDS011;55759;51.586;-1.758;2023-04-03T09:29:48;7.70;;;3.40;;
52244;SDS011;55759;51.586;-1.758;2023-04-03T09:32:33;7.65;;;3.63;;
52244;SDS011;55759;51.586;-1.758;2023-04-03T09:35:03;7.60;;;3.38;;
52244;SDS011;55759;51.586;-1.758;2023-04-03T09:37:51;8.73;;;3.58;;
52244;SDS011;55759;51.586;-1.758;2023-04-03T09:40:40;6.85;;;3.60;;
52244;SDS011;55759;51.586;-1.758;2023-04-03T09:45:42;9.23;;;3.67;;
52244;SDS011;55759;51.586;-1.758;2023-04-03T09:53:49;11.55;;;2.67;;
52244;SDS011;55759;51.586;-1.758;2023-04-03T09:58:40;11.60;;;5.05;;
52244;SDS011;55759;51.586;-1.758;2023-04-03T10:01:20;7.85;;;3.25;;
52244;SDS011;55759;51.586;-1.758;2023-04-03T10:04:03;8.57;;;2.92;;
52244;SDS011;55759;51.586;-1.758;2023-04-03T10:11:59;7.30;;;3.10;;
52244;SDS011;55759;51.586;-1.758;2023-04-03T10:14:30;9.27;;;3.20;;
52244;SDS011;55759;51.586;-1.758;2023-04-03T10:19:43;11.10;;;3.90;;
52244;SDS011;55759;51.586;-1.758;2023-04-03T10:27:53;9.43;;;3.55;;
52244;SDS011;55759;51.586;-1.758;2023-04-03T10:35:56;17.60;;;4.05;;
52244;SDS011;55759;51.586;-1.758;2023-04-03T10:38:43;10.88;;;3.38;;
52244;SDS011;55759;51.586;-1.758;2023-04-03T10:41:24;7.90;;;3.22;;
52244;SDS011;55759;51.586;-1.758;2023-04-03T10:46:43;6.90;;;3.05;;
52244;SDS011;55759;51.586;-1.758;2023-04-03T10:51:58;9.35;;;3.20;;
52244;SDS011;55759;51.586;-1.758;2023-04-03T10:54:58;9.07;;;3.63;;
52244;SDS011;55759;51.586;-1.758;2023-04-03T10:57:39;8.13;;;3.10;;
52244;SDS011;55759;51.586;-1.758;2023-04-03T11:00:06;11.27;;;3.20;;
52244;SDS011;55759;51.586;-1.758;2023-04-03T11:02:45;8.15;;;3.47;;
52244;SDS011;55759;51.586;-1.758;2023-04-03T11:05:29;10.13;;;3.88;;
52244;SDS011;55759;51.586;-1.758;2023-04-03T11:08:05;8.90;;;3.17;;
52244;SDS011;55759;51.586;-1.758;2023-04-03T11:10:55;9.88;;;3.63;;
52244;SDS011;55759;51.586;-1.758;2023-04-03T11:16:29;6.25;;;3.47;;
52244;SDS011;55759;51.586;-1.758;2023-04-03T11:18:59;8.70;;;3.33;;
52244;SDS011;55759;51.586;-1.758;2023-04-03T11:21:45;8.13;;;3.45;;
52244;SDS011;55759;51.586;-1.758;2023-04-03T11:24:32;8.25;;;3.05;;
52244;SDS011;55759;51.586;-1.758;2023-04-03T11:29:48;8.23;;;3.10;;
52244;SDS011;55759;51.586;-1.758;2023-04-03T11:41:17;7.50;;;3.40;;
52244;SDS011;55759;51.586;-1.758;2023-04-03T11:46:58;12.00;;;3.90;;
52244;SDS011;55759;51.586;-1.758;2023-04-03T12:08:44;10.48;;;4.60;;
52244;SDS011;55759;51.586;-1.758;2023-04-03T12:13:37;10.60;;;4.25;;
52244;SDS011;55759;51.586;-1.758;2023-04-03T12:16:32;9.10;;;3.80;;
52244;SDS011;55759;51.586;-1.758;2023-04-03T12:24:25;10.43;;;5.32;;
52244;SDS011;55759;51.586;-1.758;2023-04-03T12:35:18;5.88;;;2.88;;
52244;SDS011;55759;51.586;-1.758;2023-04-03T12:46:08;7.90;;;3.25;;
52244;SDS011;55759;51.586;-1.758;2023-04-03T12:48:58;7.30;;;3.10;;
52244;SDS011;55759;51.586;-1.758;2023-04-03T12:56:57;7.28;;;3.17;;
52244;SDS011;55759;51.586;-1.758;2023-04-03T12:59:37;7.20;;;2.90;;
52244;SDS011;55759;51.586;-1.758;2023-04-03T13:02:10;7.93;;;3.05;;
52244;SDS011;55759;51.586;-1.758;2023-04-03T13:05:36;10.43;;;3.10;;
52244;SDS011;55759;51.586;-1.758;2023-04-03T13:11:46;7.03;;;3.53;;
52244;SDS011;55759;51.586;-1.758;2023-04-03T13:14:26;10.07;;;3.58;;
52244;SDS011;55759;51.586;-1.758;2023-04-03T13:17:10;8.50;;;3.45;;
52244;SDS011;55759;51.586;-1.758;2023-04-03T13:19:39;9.55;;;3.70;;
52244;SDS011;55759;51.586;-1.758;2023-04-03T13:22:42;8.52;;;3.90;;
52244;SDS011;55759;51.586;-1.758;2023-04-03T13:25:05;10.98;;;4.18;;
52244;SDS011;55759;51.586;-1.758;2023-04-03T13:27:34;6.75;;;3.75;;
52244;SDS011;55759;51.586;-1.758;2023-04-03T13:30:01;10.02;;;4.00;;
52244;SDS011;55759;51.586;-1.758;2023-04-03T13:32:28;10.60;;;4.35;;
52244;SDS011;55759;51.586;-1.758;2023-04-03T13:34:56;9.65;;;4.00;;
52244;SDS011;55759;51.586;-1.758;2023-04-03T13:37:23;13.00;;;5.20;;
52244;SDS011;55759;51.586;-1.758;2023-04-03T13:40:18;10.85;;;3.95;;
52244;SDS011;55759;51.586;-1.758;2023-04-03T13:42:43;9.80;;;3.42;;
52244;SDS011;55759;51.586;-1.758;2023-04-03T13:45:25;8.88;;;3.28;;
52244;SDS011;55759;51.586;-1.758;2023-04-03T13:47:55;9.25;;;3.70;;
52244;SDS011;55759;51.586;-1.758;2023-04-03T13:53:26;10.60;;;3.90;;
52244;SDS011;55759;51.586;-1.758;2023-04-03T13:56:04;7.05;;;3.67;;
52244;SDS011;55759;51.586;-1.758;2023-04-03T13:58:33;9.90;;;3.70;;
52244;SDS011;55759;51.586;-1.758;2023-04-03T14:01:11;9.60;;;3.63;;
52244;SDS011;55759;51.586;-1.758;2023-04-03T14:04:12;6.75;;;3.75;;
52244;SDS011;55759;51.586;-1.758;2023-04-03T14:06:44;8.52;;;4.70;;
52244;SDS011;55759;51.586;-1.758;2023-04-03T14:09:10;11.52;;;4.75;;
52244;SDS011;55759;51.586;-1.758;2023-04-03T14:11:37;10.15;;;4.07;;
52244;SDS011;55759;51.586;-1.758;2023-04-03T14:14:11;8.75;;;4.03;;
52244;SDS011;55759;51.586;-1.758;2023-04-03T14:16:41;10.95;;;4.47;;
52244;SDS011;55759;51.586;-1.758;2023-04-03T14:19:18;16.58;;;4.25;;
52244;SDS011;55759;51.586;-1.758;2023-04-03T14:21:49;10.18;;;3.47;;
52244;SDS011;55759;51.586;-1.758;2023-04-03T14:24:18;7.82;;;3.70;;
52244;SDS011;55759;51.586;-1.758;2023-04-03T14:26:45;7.65;;;3.63;;
52244;SDS011;55759;51.586;-1.758;2023-04-03T14:29:12;10.25;;;4.18;;
52244;SDS011;55759;51.586;-1.758;2023-04-03T14:31:38;9.25;;;3.88;;
52244;SDS011;55759;51.586;-1.758;2023-04-03T14:34:05;7.57;;;3.72;;
52244;SDS011;55759;51.586;-1.758;2023-04-03T14:36:31;12.48;;;3.72;;
52244;SDS011;55759;51.586;-1.758;2023-04-03T14:38:57;6.60;;;3.42;;
52244;SDS011;55759;51.586;-1.758;2023-04-03T14:41:23;8.20;;;3.22;;
52244;SDS011;55759;51.586;-1.758;2023-04-03T14:43:50;8.55;;;3.75;;
52244;SDS011;55759;51.586;-1.758;2023-04-03T14:46:28;5.93;;;2.90;;
52244;SDS011;55759;51.586;-1.758;2023-04-03T14:48:56;7.28;;;3.30;;
52244;SDS011;55759;51.586;-1.758;2023-04-03T14:51:22;8.48;;;3.20;;
52244;SDS011;55759;51.586;-1.758;2023-04-03T14:53:48;9.95;;;3.40;;
52244;SDS011;55759;51.586;-1.758;2023-04-03T14:56:19;7.00;;;2.95;;
52244;SDS011;55759;51.586;-1.758;2023-04-03T14:58:48;10.70;;;4.38;;
52244;SDS011;55759;51.586;-1.758;2023-04-03T15:01:17;8.10;;;3.75;;
52244;SDS011;55759;51.586;-1.758;2023-04-03T15:03:52;8.85;;;3.22;;
52244;SDS011;55759;51.586;-1.758;2023-04-03T15:06:19;8.77;;;3.60;;
52244;SDS011;55759;51.586;-1.758;2023-04-03T15:08:50;8.27;;;3.17;;
52244;SDS011;55759;51.586;-1.758;2023-04-03T15:11:16;7.32;;;3.40;;
52244;SDS011;55759;51.586;-1.758;2023-04-03T15:13:45;8.30;;;3.65;;
52244;SDS011;55759;51.586;-1.758;2023-04-03T15:16:12;12.43;;;3.58;;
52244;SDS011;55759;51.586;-1.758;2023-04-03T15:18:44;7.32;;;3.67;;
52244;SDS011;55759;51.586;-1.758;2023-04-03T15:21:17;12.65;;;6.97;;
52244;SDS011;55759;51.586;-1.758;2023-04-03T15:23:42;11.18;;;5.15;;
52244;SDS011;55759;51.586;-1.758;2023-04-03T15:29:14;5.82;;;3.25;;
52244;SDS011;55759;51.586;-1.758;2023-04-03T15:31:42;6.80;;;3.10;;
52244;SDS011;55759;51.586;-1.758;2023-04-03T15:34:08;8.48;;;3.03;;
52244;SDS011;55759;51.586;-1.758;2023-04-03T15:36:34;10.57;;;3.03;;
52244;SDS011;55759;51.586;-1.758;2023-04-03T15:39:00;9.80;;;3.72;;
52244;SDS011;55759;51.586;-1.758;2023-04-03T15:41:25;7.38;;;3.10;;
52244;SDS011;55759;51.586;-1.758;2023-04-03T15:43:51;7.05;;;3.10;;
52244;SDS011;55759;51.586;-1.758;2023-04-03T15:46:17;5.78;;;2.33;;
52244;SDS011;55759;51.586;-1.758;2023-04-03T15:48:43;5.95;;;2.63;;
52244;SDS011;55759;51.586;-1.758;2023-04-03T15:51:10;7.55;;;2.78;;
52244;SDS011;55759;51.586;-1.758;2023-04-03T15:53:36;6.88;;;2.85;;
52244;SDS011;55759;51.586;-1.758;2023-04-03T15:56:01;8.90;;;2.60;;
52244;SDS011;55759;51.586;-1.758;2023-04-03T15:58:29;21.10;;;3.35;;
52244;SDS011;55759;51.586;-1.758;2023-04-03T16:00:55;6.78;;;2.30;;
52244;SDS011;55759;51.586;-1.758;2023-04-03T16:03:21;7.20;;;2.55;;
52244;SDS011;55759;51.586;-1.758;2023-04-03T16:05:50;10.55;;;2.70;;
52244;SDS011;55759;51.586;-1.758;2023-04-03T16:08:16;6.97;;;2.83;;
52244;SDS011;55759;51.586;-1.758;2023-04-03T16:10:43;5.38;;;2.80;;
52244;SDS011;55759;51.586;-1.758;2023-04-03T16:13:13;10.35;;;3.13;;
52244;SDS011;55759;51.586;-1.758;2023-04-03T16:15:40;10.27;;;3.20;;
52244;SDS011;55759;51.586;-1.758;2023-04-03T16:18:07;7.47;;;3.50;;
52244;SDS011;55759;51.586;-1.758;2023-04-03T16:20:33;8.75;;;3.55;;
52244;SDS011;55759;51.586;-1.758;2023-04-03T16:22:59;6.95;;;3.08;;
52244;SDS011;55759;51.586;-1.758;2023-04-03T16:25:26;9.63;;;3.30;;
52244;SDS011;55759;51.586;-1.758;2023-04-03T16:27:52;6.32;;;3.47;;
52244;SDS011;55759;51.586;-1.758;2023-04-03T16:30:18;11.45;;;3.70;;
52244;SDS011;55759;51.586;-1.758;2023-04-03T16:32:44;7.72;;;3.92;;
52244;SDS011;55759;51.586;-1.758;2023-04-03T16:35:13;10.10;;;4.15;;
52244;SDS011;55759;51.586;-1.758;2023-04-03T16:37:39;9.35;;;4.00;;
52244;SDS011;55759;51.586;-1.758;2023-04-03T16:40:05;7.28;;;3.08;;
52244;SDS011;55759;51.586;-1.758;2023-04-03T16:42:32;10.20;;;3.60;;
52244;SDS011;55759;51.586;-1.758;2023-04-03T16:44:58;9.77;;;3.53;;
52244;SDS011;55759;51.586;-1.758;2023-04-03T16:47:26;10.75;;;3.60;;
52244;SDS011;55759;51.586;-1.758;2023-04-03T16:49:51;7.40;;;3.30;;
52244;SDS011;55759;51.586;-1.758;2023-04-03T16:52:17;8.15;;;3.47;;
52244;SDS011;55759;51.586;-1.758;2023-04-03T16:54:43;8.82;;;3.42;;
52244;SDS011;55759;51.586;-1.758;2023-04-03T16:57:09;7.95;;;3.42;;
52244;SDS011;55759;51.586;-1.758;2023-04-03T16:59:35;8.30;;;3.65;;
52244;SDS011;55759;51.586;-1.758;2023-04-03T17:02:00;8.18;;;2.78;;
52244;SDS011;55759;51.586;-1.758;2023-04-03T17:04:26;5.40;;;2.95;;
52244;SDS011;55759;51.586;-1.758;2023-04-03T17:06:52;6.55;;;3.35;;
52244;SDS011;55759;51.586;-1.758;2023-04-03T17:09:17;7.03;;;3.35;;
52244;SDS011;55759;51.586;-1.758;2023-04-03T17:11:45;6.90;;;3.40;;
52244;SDS011;55759;51.586;-1.758;2023-04-03T17:16:37;7.10;;;3.50;;
52244;SDS011;55759;51.586;-1.758;2023-04-03T17:19:03;7.88;;;3.53;;
52244;SDS011;55759;51.586;-1.758;2023-04-03T17:21:30;5.53;;;3.40;;
52244;SDS011;55759;51.586;-1.758;2023-04-03T17:23:59;10.23;;;3.20;;